Terminal Aerodrome Forecast
Issued by NWS Cleveland, OH

Home | Current Version | Previous Version | Text Only | Print | Product List | Glossary Off
Versions: 1 2 3 4 5 6 7 8 9 10 11 12 13 14

195
FTUS41 KCLE 071141
TAFCAK
TAF
KCAK 071141Z 0712/0812 25012KT P6SM SCT018 BKN150
      TEMPO 0712/0716 BKN018
     FM071700 24012G18KT P6SM SCT025 BKN100=

USA.gov is the U.S. government's official web portal to all federal, state and local government web resources and services.